Time;durP1;ratioP1;P1;durP2;ratioP2;P2;SDS_P1;SDS_P2;PMS_P1;PMS_P2;Temp;Humidity;BMP_temperature;BMP_pressure;BME280_temperature;BME280_humidity;BME280_pressure;Samples;Min_cycle;Max_cycle;Signal;HPM_P1;HPM_P2
2021/05/19 00:01:47;;;;;;;2.30;2.10;;;10.80;99.90;;;;;;6210178;23;20401;-88
2021/05/19 00:04:23;;;;;;;3.07;1.93;;;10.90;99.90;;;;;;6190751;23;20502;-87
2021/05/19 00:06:50;;;;;;;2.40;2.20;;;10.90;99.90;;;;;;6193606;23;20471;-88
2021/05/19 00:09:20;;;;;;;2.60;2.00;;;11.00;99.90;;;;;;6190517;23;20897;-87
2021/05/19 00:11:47;;;;;;;3.80;2.50;;;11.00;99.90;;;;;;6190375;23;20410;-86
2021/05/19 00:14:16;;;;;;;3.00;1.97;;;11.10;99.90;;;;;;6187954;23;20418;-87
2021/05/19 00:16:45;;;;;;;3.70;2.10;;;11.20;99.90;;;;;;6187515;23;20445;-87
2021/05/19 00:23:00;;;;;;;3.67;2.50;;;11.20;99.90;;;;;;6121019;23;20485;-87
2021/05/19 00:25:30;;;;;;;3.20;1.90;;;11.10;99.90;;;;;;6192762;23;20406;-87
2021/05/19 00:28:04;;;;;;;2.93;2.63;;;11.10;99.90;;;;;;6187765;23;20481;-87
2021/05/19 00:30:40;;;;;;;3.90;2.60;;;11.00;99.90;;;;;;6186718;23;20441;-87
2021/05/19 00:33:15;;;;;;;3.27;2.37;;;10.90;99.90;;;;;;6188039;23;20390;-87
2021/05/19 00:35:42;;;;;;;4.80;2.30;;;11.00;99.90;;;;;;6186967;23;20755;-88
2021/05/19 00:38:11;;;;;;;2.90;2.50;;;11.00;99.90;;;;;;6187697;23;20466;-87
2021/05/19 00:40:44;;;;;;;2.57;2.37;;;11.10;99.90;;;;;;6205266;23;20421;-87
2021/05/19 00:43:16;;;;;;;4.33;2.10;;;11.10;99.90;;;;;;6200747;23;20420;-88
2021/05/19 00:45:44;;;;;;;2.90;2.33;;;11.20;99.90;;;;;;6188333;23;20480;-87
2021/05/19 00:48:15;;;;;;;2.07;1.80;;;11.10;99.90;;;;;;6190519;23;20443;-87
2021/05/19 00:50:42;;;;;;;2.40;2.20;;;11.10;99.90;;;;;;6197985;23;20375;-87
2021/05/19 00:53:28;;;;;;;3.10;2.90;;;11.10;99.90;;;;;;6204273;23;20493;-87
2021/05/19 00:56:35;;;;;;;2.47;2.23;;;11.10;99.90;;;;;;6212469;23;20397;-87
2021/05/19 00:59:28;;;;;;;2.50;2.30;;;11.10;99.90;;;;;;6174821;22;20438;-87
2021/05/19 01:02:11;;;;;;;2.27;1.73;;;11.10;99.90;;;;;;6189145;23;20417;-87
2021/05/19 01:05:10;;;;;;;;;;;;;;;;;;;;;
2021/05/19 01:10:51;;;;;;;2.33;2.10;;;11.30;99.90;;;;;;6067885;23;20821;-88
2021/05/19 01:13:31;;;;;;;2.53;1.90;;;11.30;99.90;;;;;;6096839;23;20414;-87
2021/05/19 01:16:30;;;;;;;6.90;2.10;;;11.30;99.90;;;;;;6186923;23;21017;-88
2021/05/19 01:19:30;;;;;;;2.17;1.93;;;11.30;99.90;;;;;;6206204;23;20410;-87
2021/05/19 01:22:29;;;;;;;2.20;2.00;;;11.30;99.90;;;;;;6210848;22;20409;-87
2021/05/19 01:24:56;;;;;;;2.47;2.27;;;11.30;99.90;;;;;;6198266;23;20417;-87
2021/05/19 01:27:59;;;;;;;2.73;2.20;;;11.30;99.90;;;;;;6212939;22;20469;-87
2021/05/19 01:30:33;;;;;;;2.20;2.00;;;11.30;99.90;;;;;;6197791;23;20816;-87
2021/05/19 01:33:06;;;;;;;3.43;2.00;;;11.30;99.90;;;;;;6197944;23;20440;-88
2021/05/19 01:35:33;;;;;;;2.83;2.03;;;11.30;99.90;;;;;;6208910;23;20474;-87
2021/05/19 01:38:01;;;;;;;2.13;1.93;;;11.20;99.90;;;;;;6206175;23;20453;-87
2021/05/19 01:40:48;;;;;;;2.30;2.10;;;11.20;99.90;;;;;;6207940;22;20445;-87
2021/05/19 01:43:48;;;;;;;4.63;2.40;;;11.30;99.90;;;;;;6150060;23;20442;-87
2021/05/19 01:46:15;;;;;;;3.07;2.27;;;11.20;99.90;;;;;;6199039;23;20416;-87
2021/05/19 01:48:55;;;;;;;2.97;2.57;;;11.20;99.90;;;;;;6193407;23;20422;-88
2021/05/19 01:51:31;;;;;;;3.00;2.00;;;11.20;99.90;;;;;;6187468;23;20421;-88
2021/05/19 01:54:47;;;;;;;2.30;2.10;;;11.20;99.90;;;;;;6192013;23;20390;-88
2021/05/19 01:57:14;;;;;;;3.30;2.80;;;11.20;99.90;;;;;;6085070;23;20426;-87
2021/05/19 01:59:51;;;;;;;5.10;2.53;;;11.20;99.90;;;;;;6089516;23;20435;-88
2021/05/19 02:02:47;;;;;;;2.80;2.33;;;11.20;99.90;;;;;;6194710;23;20422;-88
2021/05/19 02:05:21;;;;;;;2.50;1.93;;;11.20;99.90;;;;;;6185761;23;20413;-88
2021/05/19 02:07:48;;;;;;;2.50;2.30;;;11.20;99.90;;;;;;6183447;23;20405;-87
2021/05/19 02:10:17;;;;;;;5.17;1.97;;;11.20;99.90;;;;;;6184067;23;20760;-88
2021/05/19 02:15:27;;;;;;;3.40;2.60;;;11.20;99.90;;;;;;6181440;23;20458;-88
2021/05/19 02:18:04;;;;;;;2.83;2.53;;;11.20;99.90;;;;;;6205120;23;20465;-88
2021/05/19 02:20:37;;;;;;;3.17;2.60;;;11.20;99.90;;;;;;6185828;23;20410;-88
2021/05/19 02:23:08;;;;;;;2.63;2.40;;;11.20;99.90;;;;;;6185786;23;20781;-88
2021/05/19 02:25:35;;;;;;;2.60;2.40;;;11.20;99.90;;;;;;6185503;23;20413;-88
2021/05/19 02:28:08;;;;;;;3.00;2.43;;;11.20;99.90;;;;;;6185468;23;20386;-88
2021/05/19 02:31:14;;;;;;;3.10;2.57;;;11.20;99.90;;;;;;6185573;23;20426;-88
2021/05/19 02:33:43;;;;;;;4.57;2.93;;;11.20;99.90;;;;;;6187899;23;20889;-87
2021/05/19 02:36:27;;;;;;;3.97;2.70;;;11.20;99.90;;;;;;6199963;23;20444;-88
2021/05/19 02:39:17;;;;;;;6.43;2.63;;;11.20;99.90;;;;;;6188410;23;20529;-88
2021/05/19 02:42:15;;;;;;;3.20;2.90;;;11.20;99.90;;;;;;6069192;23;20471;-87
2021/05/19 02:44:42;;;;;;;5.57;3.00;;;11.20;99.90;;;;;;6191778;23;20439;-88
2021/05/19 02:47:13;;;;;;;4.87;2.30;;;11.10;99.90;;;;;;6202599;22;20428;-88
2021/05/19 02:50:16;;;;;;;3.33;2.60;;;11.10;99.90;;;;;;6202799;22;20459;-88
2021/05/19 02:53:14;;;;;;;2.53;2.33;;;11.10;99.90;;;;;;6187504;23;20433;-89
2021/05/19 02:55:45;;;;;;;2.43;2.20;;;11.10;99.90;;;;;;6185990;23;20472;-88
2021/05/19 02:58:19;;;;;;;4.57;2.90;;;11.10;99.90;;;;;;6185900;23;20784;-88
2021/05/19 03:00:59;;;;;;;2.50;2.30;;;11.10;99.90;;;;;;6185791;23;20509;-88
2021/05/19 03:03:26;;;;;;;3.53;2.70;;;11.10;99.90;;;;;;6185378;23;20453;-88
2021/05/19 03:05:58;;;;;;;3.20;2.90;;;11.10;99.90;;;;;;6185497;23;20413;-88
2021/05/19 03:08:48;;;;;;;4.10;2.83;;;11.20;99.90;;;;;;6185389;23;20758;-89
2021/05/19 03:11:40;;;;;;;3.03;2.70;;;11.20;99.90;;;;;;6198071;23;20390;-88
2021/05/19 03:14:28;;;;;;;3.73;2.90;;;11.20;99.90;;;;;;6187873;23;20409;-88
2021/05/19 03:17:04;;;;;;;2.93;2.73;;;11.20;99.90;;;;;;6065598;23;20452;-88
2021/05/19 03:19:58;;;;;;;2.83;2.40;;;11.10;99.90;;;;;;6184666;23;20440;-88
2021/05/19 03:22:43;;;;;;;3.37;2.17;;;11.10;99.90;;;;;;6194003;23;20405;-89
2021/05/19 03:25:42;;;;;;;4.47;2.83;;;11.10;99.90;;;;;;6187298;23;20497;-87
2021/05/19 03:28:17;;;;;;;3.00;2.67;;;11.10;99.90;;;;;;6185604;23;20429;-87
2021/05/19 03:31:06;;;;;;;2.60;2.40;;;11.00;99.90;;;;;;6190356;23;20390;-88
2021/05/19 03:33:32;;;;;;;3.47;2.73;;;11.00;99.90;;;;;;6185329;23;20752;-88
2021/05/19 03:35:58;;;;;;;2.60;2.40;;;10.90;99.90;;;;;;6187838;23;20397;-88
2021/05/19 03:38:26;;;;;;;4.37;2.90;;;11.00;99.90;;;;;;6193592;23;20447;-88
2021/05/19 03:40:52;;;;;;;3.13;2.83;;;11.00;99.90;;;;;;6200223;23;20371;-88
2021/05/19 03:43:20;;;;;;;6.60;2.20;;;11.00;99.90;;;;;;6205261;23;20507;-88
2021/05/19 03:45:48;;;;;;;3.80;2.63;;;11.00;99.90;;;;;;6191423;23;20446;-87
2021/05/19 03:48:27;;;;;;;2.50;1.93;;;11.10;99.90;;;;;;6209025;22;20527;-88
2021/05/19 03:51:11;;;;;;;3.40;3.10;;;11.00;99.90;;;;;;6207652;22;20421;-88
2021/05/19 03:53:41;;;;;;;3.40;2.43;;;11.00;99.90;;;;;;6210411;22;20410;-87
2021/05/19 03:56:07;;;;;;;2.73;2.40;;;11.00;99.90;;;;;;6198997;23;20395;-88
2021/05/19 03:58:34;;;;;;;4.20;2.57;;;11.00;99.90;;;;;;6210392;22;20437;-87
2021/05/19 04:01:27;;;;;;;2.60;2.40;;;11.00;99.90;;;;;;6214735;22;20401;-86
2021/05/19 04:04:02;;;;;;;3.13;2.90;;;11.00;99.90;;;;;;6202067;23;20402;-88
2021/05/19 04:07:07;;;;;;;3.03;2.40;;;10.90;99.90;;;;;;6213771;22;20417;-88
2021/05/19 04:09:52;;;;;;;3.27;2.40;;;10.90;99.90;;;;;;6194663;23;20436;-88
2021/05/19 04:12:51;;;;;;;;;;;;;;;;;;;;;
2021/05/19 04:15:27;;;;;;;2.40;2.20;;;10.90;99.90;;;;;;6197533;23;20386;-87
2021/05/19 04:18:14;;;;;;;2.43;2.23;;;11.00;99.90;;;;;;6214212;22;20430;-87
2021/05/19 04:20:40;;;;;;;2.43;2.33;;;11.00;99.90;;;;;;6214414;22;20396;-88
2021/05/19 04:23:06;;;;;;;3.30;3.00;;;11.00;99.90;;;;;;6214704;22;20379;-88
2021/05/19 04:25:34;;;;;;;6.63;3.00;;;11.00;99.90;;;;;;6212609;22;20378;-88
2021/05/19 04:30:50;;;;;;;4.03;2.40;;;11.10;99.90;;;;;;6203668;22;20433;-88
2021/05/19 04:34:14;;;;;;;5.00;2.80;;;11.10;99.90;;;;;;6213587;22;20390;-87
2021/05/19 04:41:06;;;;;;;3.87;3.47;;;11.20;99.90;;;;;;6046549;23;20425;-88
2021/05/19 04:44:15;;;;;;;3.50;2.63;;;11.20;99.90;;;;;;6080493;23;20397;-88
2021/05/19 04:47:23;;;;;;;4.23;3.07;;;11.20;99.90;;;;;;5989512;24;20443;-88
2021/05/19 04:56:21;;;;;;;4.63;2.90;;;11.10;99.90;;;;;;6133744;23;20403;-88
2021/05/19 04:59:19;;;;;;;5.63;2.70;;;11.10;99.90;;;;;;6158849;23;20446;-88
2021/05/19 05:01:58;;;;;;;4.60;2.80;;;11.20;99.90;;;;;;6158127;23;20422;-88
2021/05/19 05:37:24;;;;;;;3.33;3.03;;;11.80;99.90;;;;;;6218176;23;20426;-88
2021/05/19 05:39:51;;;;;;;3.77;3.27;;;11.90;99.90;;;;;;6177148;23;20946;-89
2021/05/19 05:42:20;;;;;;;3.17;2.87;;;12.00;99.90;;;;;;6190513;23;20423;-88
2021/05/19 05:44:46;;;;;;;4.40;4.00;;;12.10;99.90;;;;;;6188679;23;20458;-87
2021/05/19 05:47:21;;;;;;;3.60;3.30;;;12.20;99.90;;;;;;6187498;23;20409;-88
2021/05/19 05:49:54;;;;;;;3.73;3.43;;;12.20;99.90;;;;;;6187565;23;20567;-88
2021/05/19 05:52:22;;;;;;;3.20;2.80;;;12.20;99.90;;;;;;6186864;23;20877;-86
2021/05/19 05:55:20;;;;;;;4.40;4.00;;;12.30;99.90;;;;;;6187456;23;20420;-88
2021/05/19 05:58:01;;;;;;;6.37;3.70;;;12.30;99.90;;;;;;6209819;23;20439;-88
2021/05/19 06:00:43;;;;;;;5.67;3.67;;;12.40;99.90;;;;;;6205716;23;20417;-88
2021/05/19 06:06:34;;;;;;;5.50;4.40;;;12.60;99.90;;;;;;6176971;23;20418;-88
2021/05/19 06:16:45;;;;;;;3.63;3.33;;;13.00;99.90;;;;;;6092722;23;20983;-87
2021/05/19 06:19:28;;;;;;;4.67;4.27;;;13.00;99.90;;;;;;6143272;23;20426;-87
2021/05/19 06:22:23;;;;;;;4.37;3.60;;;13.00;99.90;;;;;;6203309;22;20413;-87
2021/05/19 06:25:16;;;;;;;3.50;3.30;;;13.10;99.90;;;;;;6189964;23;20416;-88
2021/05/19 06:28:30;;;;;;;4.33;3.93;;;13.40;99.90;;;;;;6193624;23;20939;-89
2021/05/19 06:59:16;;;;;;;3.60;3.30;;;17.80;92.40;;;;;;6036023;23;20960;-89
2021/05/19 07:02:20;;;;;;;3.23;2.93;;;17.30;91.60;;;;;;6113899;23;20452;-89
2021/05/19 07:50:42;;;;;;;5.23;3.10;;;15.60;93.60;;;;;;6130089;22;20968;-86
2021/05/19 07:53:21;;;;;;;6.30;3.97;;;14.40;95.60;;;;;;6197566;23;20396;-89
2021/05/19 07:55:51;;;;;;;5.23;3.87;;;13.90;98.20;;;;;;6201178;23;20476;-84
2021/05/19 07:58:18;;;;;;;4.33;3.80;;;13.60;99.60;;;;;;6190360;23;20441;-85
2021/05/19 08:01:00;;;;;;;4.43;4.03;;;13.40;99.90;;;;;;6192229;23;20471;-86
2021/05/19 08:03:29;;;;;;;5.20;4.40;;;13.30;99.90;;;;;;6191724;23;20414;-85
2021/05/19 08:05:57;;;;;;;4.70;3.90;;;13.30;99.90;;;;;;6195550;23;20497;-86
2021/05/19 08:08:23;;;;;;;4.83;4.20;;;13.30;99.90;;;;;;6191763;23;20807;-84
2021/05/19 08:10:58;;;;;;;5.03;3.73;;;13.50;99.90;;;;;;6190331;23;20424;-85
2021/05/19 08:13:27;;;;;;;5.83;4.10;;;13.60;99.90;;;;;;6190281;23;20395;-85
2021/05/19 08:15:53;;;;;;;7.93;4.47;;;13.90;99.90;;;;;;6189592;23;20411;-85
2021/05/19 08:18:24;;;;;;;5.30;3.73;;;14.40;99.90;;;;;;6191548;23;20493;-86
2021/05/19 08:20:54;;;;;;;5.87;4.13;;;15.40;99.90;;;;;;6189851;23;20477;-85
2021/05/19 08:23:23;;;;;;;4.60;3.37;;;16.40;98.30;;;;;;6190041;23;20398;-84
2021/05/19 08:25:49;;;;;;;4.60;3.20;;;17.10;97.40;;;;;;6189951;23;20413;-84
2021/05/19 08:28:15;;;;;;;3.87;3.53;;;17.00;94.80;;;;;;6206047;23;20433;-83
2021/05/19 08:30:42;;;;;;;6.60;3.80;;;16.60;95.80;;;;;;6208448;23;20485;-86
2021/05/19 08:33:08;;;;;;;4.00;3.27;;;16.20;97.30;;;;;;6204505;23;20425;-86
2021/05/19 08:35:34;;;;;;;4.23;3.73;;;15.70;96.30;;;;;;6188837;23;20481;-85
2021/05/19 08:38:07;;;;;;;4.60;4.20;;;15.50;97.00;;;;;;6189395;23;20445;-85
2021/05/19 08:40:37;;;;;;;4.37;3.40;;;15.60;98.30;;;;;;6187893;23;20510;-85
2021/05/19 08:43:03;;;;;;;4.30;3.60;;;15.80;98.20;;;;;;6188758;23;20417;-87
2021/05/19 08:45:30;;;;;;;5.17;3.43;;;16.10;98.00;;;;;;6189949;23;20977;-85
2021/05/19 08:48:01;;;;;;;5.60;3.47;;;16.30;96.50;;;;;;6188979;23;20416;-87
2021/05/19 08:50:28;;;;;;;3.97;3.60;;;16.70;96.30;;;;;;6189270;23;20441;-85
2021/05/19 08:52:57;;;;;;;3.73;2.90;;;16.80;94.70;;;;;;6188759;23;20436;-85
2021/05/19 08:55:24;;;;;;;5.63;3.63;;;17.20;93.00;;;;;;6191727;23;20397;-85
2021/05/19 08:57:51;;;;;;;4.23;3.23;;;17.60;91.80;;;;;;6211806;23;20442;-86
2021/05/19 09:00:19;;;;;;;3.40;3.10;;;17.60;90.90;;;;;;6205846;23;20430;-84
2021/05/19 09:03:27;;;;;;;5.17;3.20;;;17.70;91.00;;;;;;6202412;23;20396;-87
2021/05/19 09:10:10;;;;;;;4.43;2.80;;;20.00;88.40;;;;;;5913533;24;20569;-87
2021/05/19 09:23:19;;;;;;;3.83;2.40;;;21.50;72.60;;;;;;6084072;23;20409;-87
2021/05/19 09:26:25;;;;;;;3.40;2.10;;;22.50;69.60;;;;;;6098039;23;20409;-88
2021/05/19 09:29:14;;;;;;;2.60;2.17;;;24.90;64.10;;;;;;6104560;23;20437;-87
2021/05/19 09:31:58;;;;;;;3.03;2.50;;;26.20;57.70;;;;;;6209406;23;20510;-88
2021/05/19 09:34:41;;;;;;;2.73;2.50;;;25.30;56.50;;;;;;6199457;23;20375;-87
2021/05/19 09:37:18;;;;;;;5.17;1.83;;;25.60;56.20;;;;;;6206053;23;20409;-85
2021/05/19 09:39:49;;;;;;;2.10;1.90;;;27.80;52.30;;;;;;6211476;22;20422;-85
2021/05/19 09:42:17;;;;;;;4.47;1.60;;;28.40;50.30;;;;;;6196913;23;20383;-87
2021/05/19 09:44:47;;;;;;;3.43;2.30;;;29.40;47.30;;;;;;6199477;23;20399;-85
2021/05/19 09:47:14;;;;;;;2.33;1.70;;;29.60;46.40;;;;;;6197012;23;20482;-85
2021/05/19 09:49:40;;;;;;;3.00;1.93;;;30.60;43.60;;;;;;6192766;23;20516;-85
2021/05/19 09:52:12;;;;;;;3.57;1.93;;;31.30;41.70;;;;;;6192890;23;20386;-85
2021/05/19 09:54:42;;;;;;;3.40;2.20;;;30.20;42.20;;;;;;6193329;23;20444;-85
2021/05/19 09:57:10;;;;;;;2.33;2.00;;;29.90;43.00;;;;;;6191587;23;20402;-85
2021/05/19 09:59:37;;;;;;;1.67;1.20;;;29.90;42.70;;;;;;6191999;23;20422;-85
2021/05/19 10:02:05;;;;;;;4.60;4.20;;;28.20;42.70;;;;;;6204324;23;20390;-85
2021/05/19 10:04:34;;;;;;;2.00;1.80;;;28.60;41.50;;;;;;6194087;23;20424;-85
2021/05/19 10:07:00;;;;;;;3.43;1.40;;;29.90;39.90;;;;;;6190853;23;20405;-85
2021/05/19 10:09:27;;;;;;;1.93;1.03;;;30.40;38.00;;;;;;6192420;23;20440;-85
2021/05/19 10:11:54;;;;;;;2.20;1.20;;;29.40;38.70;;;;;;6191185;23;20406;-85
2021/05/19 10:14:23;;;;;;;2.60;1.80;;;29.50;39.00;;;;;;6191805;23;20394;-85
2021/05/19 10:16:54;;;;;;;2.87;1.30;;;30.60;38.10;;;;;;6192530;23;20416;-85
2021/05/19 10:19:27;;;;;;;3.00;1.40;;;28.50;39.00;;;;;;6206261;22;20426;-85
2021/05/19 10:21:57;;;;;;;2.43;1.90;;;27.10;40.80;;;;;;6197460;23;20394;-85
2021/05/19 10:24:45;;;;;;;2.43;1.97;;;26.80;42.30;;;;;;6198944;23;20371;-85
2021/05/19 10:27:11;;;;;;;2.10;1.50;;;28.00;40.80;;;;;;6199739;23;20421;-85
2021/05/19 10:29:51;;;;;;;2.13;1.60;;;28.90;39.80;;;;;;6196226;23;20429;-85
2021/05/19 10:32:30;;;;;;;5.80;1.50;;;30.60;37.70;;;;;;6208266;23;20400;-85
2021/05/19 10:34:58;;;;;;;1.80;1.13;;;31.70;34.80;;;;;;6194189;23;20480;-85
2021/05/19 10:37:45;;;;;;;2.50;1.03;;;32.20;34.80;;;;;;6190363;23;20437;-84
2021/05/19 10:40:29;;;;;;;1.17;1.03;;;33.20;32.20;;;;;;6190507;23;20480;-86
2021/05/19 10:42:58;;;;;;;2.13;1.03;;;33.70;32.00;;;;;;6194604;23;20410;-86
2021/05/19 10:45:34;;;;;;;1.27;0.90;;;34.00;30.50;;;;;;6187168;23;20406;-85
2021/05/19 10:48:30;;;;;;;1.70;1.20;;;33.90;29.90;;;;;;6188837;23;20414;-86
2021/05/19 10:51:01;;;;;;;1.90;1.27;;;34.40;29.60;;;;;;6189592;23;20529;-86
2021/05/19 10:59:15;;;;;;;4.43;1.47;;;34.70;28.60;;;;;;6192283;23;20445;-85
2021/05/19 11:02:03;;;;;;;3.23;1.30;;;35.30;28.10;;;;;;6202617;23;20406;-85
2021/05/19 11:04:29;;;;;;;2.30;1.60;;;34.80;27.10;;;;;;6210439;22;20391;-85
2021/05/19 11:07:08;;;;;;;3.20;1.43;;;35.20;27.70;;;;;;6194486;23;20379;-85
2021/05/19 11:09:39;;;;;;;1.20;1.07;;;34.60;26.30;;;;;;6194075;23;20434;-85
2021/05/19 11:12:46;;;;;;;1.50;1.30;;;34.20;26.60;;;;;;6194521;23;20406;-85
2021/05/19 11:16:00;;;;;;;1.20;1.00;;;33.60;27.20;;;;;;6193733;23;20394;-85
2021/05/19 11:21:28;;;;;;;3.63;1.40;;;32.50;29.20;;;;;;6106048;23;20456;-84
2021/05/19 11:24:07;;;;;;;5.03;1.70;;;31.30;29.40;;;;;;6105059;23;20417;-85
2021/05/19 11:26:37;;;;;;;4.17;1.20;;;31.10;31.20;;;;;;6150270;23;20421;-85
2021/05/19 11:29:04;;;;;;;3.20;1.70;;;31.10;31.80;;;;;;6195954;23;20474;-85
2021/05/19 11:31:38;;;;;;;3.20;1.57;;;30.00;32.80;;;;;;6203319;23;20390;-85
2021/05/19 11:34:05;;;;;;;4.20;1.70;;;28.90;34.30;;;;;;6200681;23;20394;-84
2021/05/19 11:36:35;;;;;;;1.67;1.50;;;28.80;34.60;;;;;;6193127;23;20408;-84
2021/05/19 11:39:05;;;;;;;3.17;1.60;;;29.30;34.80;;;;;;6193847;23;20453;-84
2021/05/19 11:41:32;;;;;;;1.90;1.67;;;30.30;34.20;;;;;;6192018;23;20406;-85
2021/05/19 11:43:59;;;;;;;3.30;2.40;;;31.70;31.90;;;;;;6192527;23;20390;-85
2021/05/19 11:46:26;;;;;;;2.60;1.70;;;32.40;30.90;;;;;;6193981;23;20406;-85
2021/05/19 11:48:52;;;;;;;3.23;1.80;;;32.70;30.70;;;;;;6192638;23;20405;-84
2021/05/19 11:51:20;;;;;;;2.37;1.20;;;34.00;29.90;;;;;;6192491;23;20417;-85
2021/05/19 11:54:00;;;;;;;1.30;1.10;;;35.00;27.40;;;;;;6194954;23;20405;-85
2021/05/19 11:56:41;;;;;;;1.50;1.13;;;35.50;26.60;;;;;;6194969;23;20393;-85
2021/05/19 11:59:21;;;;;;;2.83;1.60;;;35.30;26.40;;;;;;6193471;23;20527;-84
2021/05/19 12:02:01;;;;;;;2.20;1.60;;;34.60;26.80;;;;;;6195984;23;20416;-84
2021/05/19 12:04:29;;;;;;;2.23;1.47;;;34.80;27.30;;;;;;6197808;23;20419;-85
2021/05/19 12:06:59;;;;;;;3.23;1.40;;;35.30;26.50;;;;;;6195461;23;20398;-85
2021/05/19 12:09:28;;;;;;;1.90;1.40;;;36.30;25.90;;;;;;6209618;22;20413;-86
2021/05/19 12:11:56;;;;;;;2.20;1.20;;;35.70;25.00;;;;;;6211529;23;20481;-85
2021/05/19 12:14:23;;;;;;;2.50;1.70;;;35.60;25.80;;;;;;6212435;22;20400;-87
2021/05/19 12:16:50;;;;;;;2.23;1.70;;;35.80;25.60;;;;;;6212008;22;20493;-86
2021/05/19 12:19:17;;;;;;;3.90;1.60;;;36.00;25.60;;;;;;6211788;22;20433;-86
2021/05/19 12:21:45;;;;;;;3.30;1.47;;;36.20;25.20;;;;;;6212463;22;20453;-86
2021/05/19 12:24:14;;;;;;;2.67;1.27;;;35.50;24.90;;;;;;6211717;22;20457;-86
2021/05/19 12:26:41;;;;;;;1.90;1.10;;;35.80;24.90;;;;;;6212426;23;20394;-86
2021/05/19 12:29:33;;;;;;;3.07;1.50;;;37.30;24.10;;;;;;6211204;22;20504;-85
2021/05/19 12:32:14;;;;;;;1.93;1.20;;;37.60;23.30;;;;;;6193943;23;20465;-86
2021/05/19 12:34:41;;;;;;;5.23;1.33;;;37.10;23.70;;;;;;6191365;23;20386;-86
2021/05/19 12:37:08;;;;;;;1.70;1.10;;;36.70;23.40;;;;;;6210053;23;20416;-86
2021/05/19 12:42:21;;;;;;;4.43;2.80;;;33.30;25.00;;;;;;6200363;23;20424;-86
2021/05/19 12:44:57;;;;;;;2.00;1.20;;;32.40;25.90;;;;;;6203269;23;20409;-86
2021/05/19 12:47:25;;;;;;;2.53;1.20;;;32.40;25.80;;;;;;6196436;23;20417;-86
2021/05/19 12:50:02;;;;;;;3.30;1.20;;;32.80;26.20;;;;;;6198715;23;20487;-85
2021/05/19 12:52:33;;;;;;;1.77;1.33;;;32.70;26.40;;;;;;6205830;23;20394;-83
2021/05/19 12:55:00;;;;;;;2.30;1.30;;;33.80;25.70;;;;;;6199533;23;20436;-83
2021/05/19 12:57:28;;;;;;;1.40;1.30;;;34.90;24.90;;;;;;6200200;23;20418;-84
2021/05/19 13:00:06;;;;;;;2.43;1.10;;;36.10;24.60;;;;;;6207275;23;20469;-83
2021/05/19 13:02:43;;;;;;;2.97;1.80;;;35.80;24.60;;;;;;6201940;23;20477;-84
2021/05/19 13:05:17;;;;;;;2.20;1.30;;;34.90;25.20;;;;;;6200577;23;20413;-85
2021/05/19 13:07:52;;;;;;;3.63;1.10;;;34.40;25.20;;;;;;6207237;23;20386;-84
2021/05/19 13:10:21;;;;;;;3.97;1.30;;;34.40;25.40;;;;;;6212232;22;20440;-84
2021/05/19 13:12:59;;;;;;;1.80;1.17;;;33.50;25.20;;;;;;6197098;23;20410;-85
2021/05/19 13:15:41;;;;;;;3.23;1.27;;;31.60;26.50;;;;;;6196432;23;20447;-84
2021/05/19 13:18:20;;;;;;;1.60;1.20;;;30.90;27.10;;;;;;6195873;23;20599;-85
2021/05/19 13:20:52;;;;;;;3.13;1.50;;;31.50;26.90;;;;;;6200243;23;20433;-84
2021/05/19 13:23:18;;;;;;;3.63;1.30;;;30.50;27.70;;;;;;6210593;22;20501;-84
2021/05/19 13:25:45;;;;;;;2.30;1.23;;;31.20;27.20;;;;;;6212827;22;20392;-84
2021/05/19 13:28:22;;;;;;;2.33;1.40;;;32.00;26.80;;;;;;6211212;23;20402;-84
2021/05/19 13:30:49;;;;;;;3.70;1.20;;;32.60;26.00;;;;;;6205250;23;20449;-84
2021/05/19 13:33:32;;;;;;;3.47;1.63;;;32.30;26.50;;;;;;6210165;23;20403;-85
2021/05/19 13:36:21;;;;;;;2.00;0.80;;;32.40;26.20;;;;;;6210457;22;20458;-87
2021/05/19 13:38:53;;;;;;;3.00;1.80;;;32.90;26.00;;;;;;6205183;23;20533;-87
2021/05/19 13:41:23;;;;;;;2.33;1.10;;;33.60;25.40;;;;;;6201567;23;20408;-86
2021/05/19 13:43:49;;;;;;;1.50;1.00;;;31.80;26.50;;;;;;6199781;23;20745;-84
2021/05/19 13:46:23;;;;;;;2.07;1.30;;;29.90;28.20;;;;;;6201423;23;20474;-87
2021/05/19 13:48:52;;;;;;;2.30;1.20;;;28.50;29.80;;;;;;6198049;23;20404;-87
2021/05/19 13:51:21;;;;;;;1.63;1.10;;;30.20;29.70;;;;;;6205343;23;20418;-85
2021/05/19 13:53:59;;;;;;;3.43;1.40;;;30.80;28.70;;;;;;6201253;23;20393;-86
2021/05/19 13:56:28;;;;;;;1.00;0.90;;;31.80;28.00;;;;;;6201326;23;20493;-85
2021/05/19 13:58:58;;;;;;;2.10;1.20;;;32.40;26.70;;;;;;6198984;23;20442;-85
2021/05/19 14:01:33;;;;;;;1.23;1.00;;;32.90;26.50;;;;;;6202612;23;20394;-86
2021/05/19 14:04:03;;;;;;;3.43;1.23;;;32.90;26.50;;;;;;6202597;23;20378;-86
2021/05/19 14:06:34;;;;;;;1.97;1.27;;;32.80;27.00;;;;;;6210735;23;20407;-85
2021/05/19 14:09:12;;;;;;;3.17;1.47;;;32.50;26.30;;;;;;6204458;23;20414;-86
2021/05/19 14:11:51;;;;;;;3.00;1.13;;;32.90;26.50;;;;;;6202431;23;20477;-85
2021/05/19 14:14:29;;;;;;;4.60;1.50;;;33.00;25.80;;;;;;6200926;23;20394;-86
2021/05/19 14:17:11;;;;;;;3.53;1.63;;;32.00;26.20;;;;;;6199558;23;20398;-85
2021/05/19 14:27:54;;;;;;;2.70;1.37;;;28.40;29.80;;;;;;6199511;23;20391;-85
2021/05/19 14:30:29;;;;;;;2.57;1.17;;;26.90;30.70;;;;;;6192232;23;20440;-85
2021/05/19 14:32:57;;;;;;;1.90;1.10;;;25.50;34.20;;;;;;6185844;23;20880;-85
2021/05/19 15:00:39;;;;;;;2.80;1.30;;;21.20;48.30;;;;;;6188005;23;20416;-86
2021/05/19 15:03:11;;;;;;;2.73;1.00;;;21.00;48.60;;;;;;6200234;23;20417;-86
2021/05/19 15:05:39;;;;;;;2.77;1.40;;;20.90;49.50;;;;;;6195856;23;20405;-87
2021/05/19 15:08:06;;;;;;;1.47;1.00;;;20.60;50.10;;;;;;6186919;23;20418;-86
2021/05/19 15:10:33;;;;;;;2.50;1.67;;;20.50;50.10;;;;;;6187976;23;20958;-86
2021/05/19 15:13:02;;;;;;;1.47;0.73;;;20.30;50.00;;;;;;6189194;23;20414;-85
2021/05/19 15:15:30;;;;;;;0.80;0.70;;;20.10;50.30;;;;;;6193683;23;20476;-85
2021/05/19 15:17:57;;;;;;;1.80;0.90;;;20.00;51.30;;;;;;6211181;23;20430;-83
2021/05/19 15:20:24;;;;;;;2.10;0.90;;;19.80;51.30;;;;;;6200735;23;20421;-86
2021/05/19 15:23:03;;;;;;;2.20;1.10;;;19.80;51.50;;;;;;6188288;23;20423;-86
2021/05/19 15:25:30;;;;;;;2.17;1.10;;;19.70;52.00;;;;;;6187546;23;20407;-86
2021/05/19 15:28:03;;;;;;;2.07;1.03;;;19.60;52.70;;;;;;6187989;23;20423;-86
2021/05/19 15:30:29;;;;;;;1.77;1.17;;;19.40;53.10;;;;;;6188263;23;20434;-86
2021/05/19 15:32:58;;;;;;;2.00;1.07;;;19.30;53.00;;;;;;6194447;23;20460;-86
2021/05/19 15:35:25;;;;;;;1.90;1.03;;;19.00;52.70;;;;;;6196076;23;20414;-87
2021/05/19 15:37:51;;;;;;;2.57;1.20;;;19.00;53.20;;;;;;6192679;23;20491;-85
2021/05/19 15:40:27;;;;;;;1.50;1.00;;;18.90;53.60;;;;;;6195821;23;20427;-86
2021/05/19 15:42:58;;;;;;;1.93;1.00;;;18.80;53.60;;;;;;6194008;23;20420;-87
2021/05/19 15:45:25;;;;;;;4.83;1.40;;;18.60;53.90;;;;;;6190419;23;20437;-86
2021/05/19 15:47:54;;;;;;;2.57;1.40;;;18.60;54.00;;;;;;6202094;23;20462;-86
2021/05/19 15:50:27;;;;;;;2.90;1.20;;;18.50;54.50;;;;;;6210319;23;20443;-86
2021/05/19 15:52:53;;;;;;;4.40;2.17;;;18.40;54.40;;;;;;6190639;23;21000;-86
2021/05/19 15:55:26;;;;;;;2.10;1.20;;;18.50;54.30;;;;;;6191252;23;20432;-85
2021/05/19 15:57:54;;;;;;;1.83;0.93;;;18.60;53.40;;;;;;6203504;23;20472;-87
2021/05/19 16:00:25;;;;;;;1.60;1.10;;;18.60;52.50;;;;;;6203947;23;20415;-87
2021/05/19 16:03:07;;;;;;;4.00;2.73;;;18.60;51.70;;;;;;6197303;22;20537;-85
2021/05/19 16:05:37;;;;;;;6.87;4.73;;;18.60;52.20;;;;;;6202622;23;20402;-85
2021/05/19 16:08:05;;;;;;;2.33;1.67;;;18.60;52.50;;;;;;6197960;23;20906;-88
2021/05/19 16:13:56;;;;;;;3.13;1.27;;;18.40;51.30;;;;;;6198774;23;20417;-86
2021/05/19 16:16:27;;;;;;;2.13;1.10;;;18.30;52.40;;;;;;6199848;23;20374;-87
2021/05/19 16:19:04;;;;;;;2.43;1.60;;;18.20;53.20;;;;;;6200720;23;20448;-87
2021/05/19 16:21:48;;;;;;;3.67;2.10;;;18.20;53.30;;;;;;6205202;23;20389;-86
2021/05/19 16:27:03;;;;;;;8.43;4.30;;;18.30;54.00;;;;;;6199580;23;20421;-87
2021/05/19 16:36:38;;;;;;;3.07;2.77;;;18.30;54.60;;;;;;6187928;23;20393;-86
2021/05/19 16:39:07;;;;;;;1.73;1.57;;;18.10;54.40;;;;;;6189290;23;20456;-86
2021/05/19 16:41:35;;;;;;;1.50;1.20;;;18.10;54.40;;;;;;6192606;23;20491;-86
2021/05/19 16:44:09;;;;;;;4.23;3.60;;;18.10;54.00;;;;;;6189674;23;20412;-87
2021/05/19 16:46:36;;;;;;;1.50;1.00;;;18.20;54.60;;;;;;6199555;23;20443;-86
2021/05/19 16:49:07;;;;;;;1.93;1.20;;;18.00;52.70;;;;;;6204647;23;20405;-86
2021/05/19 16:51:46;;;;;;;2.43;0.77;;;18.10;52.50;;;;;;6190916;23;20680;-86
2021/05/19 16:54:13;;;;;;;1.40;1.07;;;18.10;52.30;;;;;;6187389;23;20374;-87
2021/05/19 16:56:41;;;;;;;1.47;1.10;;;18.10;52.70;;;;;;6186625;23;20497;-87
2021/05/19 16:59:11;;;;;;;1.40;0.93;;;18.10;53.30;;;;;;6193728;23;20457;-87
2021/05/19 17:07:10;;;;;;;2.43;1.50;;;17.60;53.40;;;;;;6187142;23;20378;-87
2021/05/19 17:09:49;;;;;;;1.97;1.20;;;17.50;53.80;;;;;;6187503;23;20433;-87